Terminal Aerodrome Forecast
Issued by NWS

Home | Current Version | Previous Version | Text Only | Print | Product List | Glossary On
Versions: 1 2 3 4 5 6 7 8 9 10 11 12 13 14
000
FTUS43 KOAX 310500
TAFBFF
TAF
KBFF 310520Z 3106/0106 24008KT P6SM BKN100
     FM311200 30010KT P6SM VCSH BKN150
     FM311800 31012G22KT P6SM SCT070 BKN150
     FM010200 34010KT P6SM BKN070=

USA.gov is the U.S. government's official web portal to all federal, state and local government web resources and services.